createdAt,value
2018-07-21T00:00:01.432Z,4.00
2018-07-21T00:01:01.426Z,4.00
2018-07-21T00:02:01.410Z,4.00
2018-07-21T00:03:01.400Z,4.00
2018-07-21T00:04:01.399Z,4.00
2018-07-21T00:05:01.383Z,4.00
2018-07-21T00:06:01.368Z,4.00
2018-07-21T00:07:01.358Z,4.00
2018-07-21T00:08:01.350Z,4.00
2018-07-21T00:09:01.359Z,4.00
2018-07-21T00:10:01.331Z,4.00
2018-07-21T00:11:01.328Z,4.00
2018-07-21T00:12:01.304Z,4.00
2018-07-21T00:13:01.290Z,4.00
2018-07-21T00:14:01.284Z,4.00
2018-07-21T00:15:01.271Z,4.00
2018-07-21T00:16:01.260Z,4.00
2018-07-21T00:17:01.249Z,4.00
2018-07-21T00:18:01.236Z,4.00
2018-07-21T00:19:01.228Z,4.00
2018-07-21T00:20:01.215Z,4.00
2018-07-21T00:21:01.202Z,4.00
2018-07-21T00:22:01.198Z,4.00
2018-07-21T00:23:01.183Z,4.00
2018-07-21T00:24:01.171Z,4.00
2018-07-21T00:25:01.158Z,4.00
2018-07-21T00:26:01.149Z,4.00
2018-07-21T00:27:01.139Z,4.00
2018-07-21T00:28:01.129Z,4.00
2018-07-21T00:29:01.132Z,4.00
2018-07-21T00:30:01.118Z,4.00
2018-07-21T00:31:01.100Z,4.00
2018-07-21T00:32:01.088Z,4.00
2018-07-21T00:33:01.074Z,4.00
2018-07-21T00:34:01.060Z,4.00
2018-07-21T00:35:01.056Z,4.00
2018-07-21T00:36:01.037Z,4.00
2018-07-21T00:37:01.027Z,4.00
2018-07-21T00:38:01.018Z,4.00
2018-07-21T00:39:01.008Z,4.00
2018-07-21T00:40:00.993Z,4.00
2018-07-21T00:41:00.982Z,4.00
2018-07-21T00:42:00.982Z,4.00
2018-07-21T00:43:00.960Z,4.00
2018-07-21T00:44:00.949Z,4.00
2018-07-21T00:45:00.938Z,4.00
2018-07-21T00:46:00.926Z,4.00
2018-07-21T00:47:00.922Z,4.00
2018-07-21T00:48:00.905Z,4.00
2018-07-21T00:49:00.892Z,4.00
2018-07-21T00:50:00.881Z,4.00
2018-07-21T00:51:00.870Z,4.00
2018-07-21T00:52:00.859Z,4.00
2018-07-21T00:53:00.856Z,4.00
2018-07-21T00:54:00.846Z,4.00
2018-07-21T00:55:00.829Z,4.00
2018-07-21T00:56:00.819Z,4.00
2018-07-21T00:57:00.805Z,4.00
2018-07-21T00:58:00.792Z,4.00
2018-07-21T00:59:00.780Z,4.00
2018-07-21T01:00:00.770Z,4.00
2018-07-21T01:01:00.760Z,4.00
2018-07-21T01:02:00.748Z,4.00
2018-07-21T01:03:00.739Z,4.00
2018-07-21T01:04:00.726Z,4.00
2018-07-21T01:05:00.710Z,4.00
2018-07-21T01:06:00.701Z,4.00
2018-07-21T01:07:00.696Z,4.00
2018-07-21T01:08:00.684Z,4.00
2018-07-21T01:09:00.666Z,4.00
2018-07-21T01:10:00.663Z,4.00
2018-07-21T01:11:00.694Z,4.00
2018-07-21T01:12:00.633Z,4.00
2018-07-21T01:13:00.622Z,4.00
2018-07-21T01:14:00.612Z,4.00
2018-07-21T01:15:00.601Z,4.00
2018-07-21T01:16:00.591Z,4.00
2018-07-21T01:17:00.583Z,4.00
2018-07-21T01:18:00.565Z,4.00
2018-07-21T01:19:00.560Z,4.00
2018-07-21T01:20:00.543Z,4.00
2018-07-21T01:21:00.529Z,4.00
2018-07-21T01:22:00.520Z,4.00
2018-07-21T01:23:00.507Z,4.00
2018-07-21T01:24:00.498Z,4.00
2018-07-21T01:25:00.486Z,4.00
2018-07-21T01:26:00.476Z,4.00
2018-07-21T01:27:00.462Z,4.00
2018-07-21T01:28:00.454Z,4.00
2018-07-21T01:29:00.440Z,4.00
2018-07-21T01:30:00.430Z,4.00
2018-07-21T01:31:00.419Z,4.00
2018-07-21T01:32:00.406Z,4.00
2018-07-21T01:33:00.402Z,4.00
2018-07-21T01:34:00.384Z,4.00
2018-07-21T01:35:00.369Z,4.00
2018-07-21T01:36:00.358Z,4.00
2018-07-21T01:37:00.346Z,4.00
2018-07-21T01:39:00.323Z,4.00
2018-07-21T01:40:00.311Z,4.00
2018-07-21T01:41:00.299Z,4.00
2018-07-21T01:42:00.300Z,4.00
2018-07-21T01:43:01.188Z,4.00
2018-07-21T01:44:00.273Z,4.00
2018-07-21T01:45:00.252Z,4.00
2018-07-21T01:46:00.240Z,4.00
2018-07-21T01:47:00.230Z,4.00
2018-07-21T01:48:44.095Z,4.00
2018-07-21T01:49:44.090Z,4.00
2018-07-21T01:50:44.070Z,4.00
2018-07-21T01:51:44.081Z,4.00
2018-07-21T01:52:44.049Z,4.00
2018-07-21T01:53:44.036Z,4.00
2018-07-21T01:54:44.023Z,4.00
2018-07-21T01:55:44.016Z,4.00
2018-07-21T01:56:44.006Z,4.00
2018-07-21T01:58:48.257Z,4.00
2018-07-21T01:59:48.235Z,4.00
2018-07-21T02:00:48.222Z,4.00
2018-07-21T02:01:48.213Z,4.00
2018-07-21T02:02:48.200Z,4.00
2018-07-21T02:03:48.187Z,4.00
2018-07-21T02:04:48.176Z,4.00
2018-07-21T02:05:48.165Z,4.00
2018-07-21T02:06:48.158Z,4.00
2018-07-21T02:07:48.164Z,4.00
2018-07-21T02:08:48.179Z,4.00
2018-07-21T02:09:48.119Z,4.00
2018-07-21T02:10:48.108Z,4.00
2018-07-21T02:11:48.095Z,4.00
2018-07-21T02:12:48.153Z,4.00
2018-07-21T02:13:48.071Z,4.00
2018-07-21T02:14:48.061Z,4.00
2018-07-21T02:15:48.050Z,4.00
2018-07-21T02:16:48.088Z,4.00
2018-07-21T02:17:48.025Z,4.00
2018-07-21T02:18:48.015Z,4.00
2018-07-21T02:19:48.001Z,4.00
2018-07-21T02:20:47.992Z,4.00
2018-07-21T02:21:47.977Z,4.00
2018-07-21T02:22:47.968Z,4.00
2018-07-21T02:23:47.980Z,4.00
2018-07-21T02:24:47.943Z,4.00
2018-07-21T02:25:47.932Z,4.00
2018-07-21T02:26:47.922Z,4.00
2018-07-21T02:27:47.906Z,4.00
2018-07-21T02:28:47.898Z,4.00
2018-07-21T02:29:47.885Z,4.00
2018-07-21T02:30:47.872Z,4.00
2018-07-21T02:31:47.861Z,4.00
2018-07-21T02:32:47.849Z,4.00
2018-07-21T02:33:47.842Z,4.00
2018-07-21T02:34:47.829Z,4.00
2018-07-21T02:35:47.825Z,4.00
2018-07-21T02:36:47.817Z,4.00
2018-07-21T02:37:47.790Z,4.00
2018-07-21T02:38:47.778Z,4.00
2018-07-21T02:39:47.766Z,4.00
2018-07-21T02:40:47.756Z,4.00
2018-07-21T02:41:47.744Z,4.00
2018-07-21T02:42:47.731Z,4.00
2018-07-21T02:43:47.720Z,4.00
2018-07-21T02:44:47.713Z,4.00
2018-07-21T02:45:47.755Z,4.00
2018-07-21T02:46:47.686Z,4.00
2018-07-21T02:47:47.673Z,4.00
2018-07-21T02:48:47.660Z,4.00
2018-07-21T02:49:47.649Z,4.00
2018-07-21T02:50:47.637Z,8.00
2018-07-21T02:51:47.624Z,8.00
2018-07-21T02:52:47.615Z,4.00
2018-07-21T02:53:47.601Z,4.00
2018-07-21T02:54:47.626Z,4.00
2018-07-21T02:55:47.579Z,4.00
2018-07-21T02:56:47.565Z,4.00
2018-07-21T02:57:47.553Z,4.00
2018-07-21T02:58:47.541Z,4.00
2018-07-21T02:59:47.533Z,8.00
2018-07-21T03:00:47.520Z,8.00
2018-07-21T03:01:47.506Z,4.00
2018-07-21T03:02:47.494Z,4.00
2018-07-21T03:03:47.490Z,8.00
2018-07-21T03:04:47.476Z,8.00
2018-07-21T03:05:47.459Z,8.00
2018-07-21T03:06:47.447Z,8.00
2018-07-21T03:07:47.433Z,8.00
2018-07-21T03:08:47.421Z,8.00
2018-07-21T03:09:47.413Z,12.00
2018-07-21T03:10:47.407Z,12.00
2018-07-21T03:11:47.386Z,12.00
2018-07-21T03:12:47.375Z,12.00
2018-07-21T03:13:47.363Z,16.00
2018-07-21T03:14:47.350Z,12.00
2018-07-21T03:15:47.340Z,16.00
2018-07-21T03:16:47.326Z,16.00
2018-07-21T03:17:47.318Z,12.00
2018-07-21T03:18:47.302Z,16.00
2018-07-21T03:19:47.291Z,16.00
2018-07-21T03:20:47.279Z,20.00
2018-07-21T03:21:47.266Z,24.00
2018-07-21T03:22:47.261Z,24.00
2018-07-21T03:23:47.241Z,24.00
2018-07-21T03:24:47.229Z,28.00
2018-07-21T03:25:47.370Z,24.00
2018-07-21T03:26:47.205Z,28.00
2018-07-21T03:27:47.194Z,32.00
2018-07-21T03:28:47.181Z,36.00
2018-07-21T03:29:47.173Z,44.00
2018-07-21T03:30:47.170Z,48.00
2018-07-21T03:31:47.147Z,52.00
2018-07-21T03:32:47.133Z,56.00
2018-07-21T03:33:47.123Z,60.00
2018-07-21T03:34:47.109Z,68.00
2018-07-21T03:35:47.105Z,72.00
2018-07-21T03:36:47.084Z,76.00
2018-07-21T03:37:47.072Z,84.00
2018-07-21T03:38:47.061Z,88.00
2018-07-21T03:39:47.049Z,96.00
2018-07-21T03:40:47.037Z,96.00
2018-07-21T03:41:47.024Z,104.00
2018-07-21T03:42:47.013Z,108.00
2018-07-21T03:43:47.000Z,104.00
2018-07-21T03:44:46.997Z,104.00
2018-07-21T03:45:46.977Z,100.00
2018-07-21T03:46:46.965Z,104.00
2018-07-21T03:47:46.958Z,104.00
2018-07-21T03:48:46.943Z,104.00
2018-07-21T03:49:46.929Z,104.00
2018-07-21T03:50:46.922Z,108.00
2018-07-21T03:51:46.913Z,112.00
2018-07-21T03:52:46.892Z,120.00
2018-07-21T03:53:46.886Z,128.00
2018-07-21T03:54:46.868Z,140.00
2018-07-21T03:55:46.853Z,144.00
2018-07-21T03:56:46.844Z,152.00
2018-07-21T03:57:46.932Z,164.00
2018-07-21T03:58:46.820Z,172.00
2018-07-21T03:59:46.808Z,184.00
2018-07-21T04:00:46.795Z,196.00
2018-07-21T04:01:46.781Z,212.00
2018-07-21T04:02:46.769Z,224.00
2018-07-21T04:03:46.756Z,240.00
2018-07-21T04:04:46.745Z,252.00
2018-07-21T04:05:46.733Z,268.00
2018-07-21T04:06:46.721Z,284.00
2018-07-21T04:07:46.708Z,300.00
2018-07-21T04:08:46.697Z,320.00
2018-07-21T04:09:46.686Z,332.00
2018-07-21T04:10:46.676Z,348.00
2018-07-21T04:11:46.661Z,360.00
2018-07-21T04:12:46.648Z,364.00
2018-07-21T04:15:45.137Z,380.00
2018-07-21T04:16:45.124Z,384.00
2018-07-21T04:17:45.112Z,396.00
2018-07-21T04:18:45.101Z,404.00
2018-07-21T04:19:45.089Z,412.00
2018-07-21T04:20:45.074Z,416.00
2018-07-21T04:21:45.065Z,420.00
2018-07-21T04:22:45.200Z,416.00
2018-07-21T04:23:45.038Z,408.00
2018-07-21T04:24:45.025Z,404.00
2018-07-21T04:25:45.012Z,392.00
2018-07-21T04:26:45.002Z,376.00
2018-07-21T04:27:44.989Z,356.00
2018-07-21T04:28:44.975Z,340.00
2018-07-21T04:29:44.964Z,324.00
2018-07-21T04:30:44.951Z,308.00
2018-07-21T04:31:44.938Z,296.00
2018-07-21T04:32:44.926Z,284.00
2018-07-21T04:33:44.913Z,276.00
2018-07-21T04:34:44.901Z,264.00
2018-07-21T04:35:44.891Z,260.00
2018-07-21T04:36:44.886Z,256.00
2018-07-21T04:37:44.864Z,252.00
2018-07-21T04:38:44.853Z,256.00
2018-07-21T04:39:44.847Z,256.00
2018-07-21T04:40:44.827Z,268.00
2018-07-21T04:41:44.822Z,280.00
2018-07-21T04:42:44.803Z,292.00
2018-07-21T04:43:44.798Z,308.00
2018-07-21T04:44:44.777Z,320.00
2018-07-21T04:45:44.768Z,332.00
2018-07-21T04:46:44.755Z,340.00
2018-07-21T04:47:44.740Z,352.00
2018-07-21T04:48:44.732Z,364.00
2018-07-21T04:49:44.718Z,380.00
2018-07-21T04:50:44.705Z,396.00
2018-07-21T04:51:44.691Z,408.00
2018-07-21T04:52:44.680Z,428.00
2018-07-21T04:53:44.667Z,448.00
2018-07-21T04:54:44.653Z,472.00
2018-07-21T04:55:44.641Z,492.00
2018-07-21T04:56:44.643Z,520.00
2018-07-21T04:57:44.625Z,552.00
2018-07-21T04:58:44.609Z,584.00
2018-07-21T04:59:44.592Z,624.00
2018-07-21T05:00:44.664Z,676.00
2018-07-21T05:01:44.575Z,720.00
2018-07-21T05:02:44.563Z,768.00
2018-07-21T05:03:44.542Z,836.00
2018-07-21T05:04:44.537Z,920.00
2018-07-21T05:05:44.571Z,1016.00
2018-07-21T05:06:44.506Z,1116.00
2018-07-21T05:07:44.494Z,1212.00
2018-07-21T05:08:44.483Z,1304.00
2018-07-21T05:09:44.470Z,1416.00
2018-07-21T05:10:44.457Z,1568.00
2018-07-21T05:11:44.462Z,1696.00
2018-07-21T05:12:44.432Z,1800.00
2018-07-21T05:13:44.421Z,1884.00
2018-07-21T05:14:44.415Z,1912.00
2018-07-21T05:15:44.395Z,1896.00
2018-07-21T05:16:44.382Z,1904.00
2018-07-21T05:17:44.372Z,1896.00
2018-07-21T05:18:44.360Z,1848.00
2018-07-21T05:19:44.350Z,1772.00
2018-07-21T05:20:44.345Z,1676.00
2018-07-21T05:21:44.325Z,1632.00
2018-07-21T05:22:44.315Z,1692.00
2018-07-21T05:23:44.297Z,1948.00
2018-07-21T05:24:44.290Z,2308.00
2018-07-21T05:25:44.273Z,2576.00
2018-07-21T05:26:44.270Z,2740.00
2018-07-21T05:27:44.251Z,2856.00
2018-07-21T05:28:44.238Z,2964.00
2018-07-21T05:29:44.225Z,3064.00
2018-07-21T05:30:44.212Z,3172.00
2018-07-21T05:31:44.202Z,3268.00
2018-07-21T05:32:44.195Z,3356.00
2018-07-21T05:33:44.178Z,3492.00
2018-07-21T05:34:44.165Z,3616.00
2018-07-21T05:35:44.152Z,3736.00
2018-07-21T05:36:44.139Z,3852.00
2018-07-21T05:37:44.250Z,3968.00
2018-07-21T05:38:44.116Z,4096.00
2018-07-21T05:39:44.103Z,4184.00
2018-07-21T05:40:44.097Z,4276.00
2018-07-21T05:41:44.086Z,4260.00
2018-07-21T05:42:44.071Z,4168.00
2018-07-21T05:43:44.054Z,4112.00
2018-07-21T05:44:44.045Z,4108.00
2018-07-21T05:45:44.030Z,4144.00
2018-07-21T05:46:44.033Z,4172.00
2018-07-21T05:47:44.005Z,4192.00
2018-07-21T05:48:44.043Z,4144.00
2018-07-21T05:49:43.987Z,4068.00
2018-07-21T05:50:43.970Z,4008.00
2018-07-21T05:51:43.958Z,3992.00
2018-07-21T05:52:43.946Z,4024.00
2018-07-21T05:53:43.933Z,4096.00
2018-07-21T05:54:43.924Z,4192.00
2018-07-21T05:55:43.957Z,4304.00
2018-07-21T05:56:43.901Z,4464.00
2018-07-21T05:57:43.887Z,4648.00
2018-07-21T05:58:43.947Z,4804.00
2018-07-21T05:59:43.861Z,4844.00
2018-07-21T06:00:43.860Z,4804.00
2018-07-21T06:01:43.843Z,4764.00
2018-07-21T06:02:43.912Z,4736.00
2018-07-21T06:03:43.815Z,4748.00
2018-07-21T06:04:43.803Z,4808.00
2018-07-21T06:05:43.794Z,4868.00
2018-07-21T06:06:43.781Z,4888.00
2018-07-21T06:07:43.769Z,4872.00
2018-07-21T06:08:43.797Z,4784.00
2018-07-21T06:09:43.746Z,4752.00
2018-07-21T06:10:43.743Z,4752.00
2018-07-21T06:11:43.723Z,4816.00
2018-07-21T06:12:43.715Z,4924.00
2018-07-21T06:13:43.698Z,5044.00
2018-07-21T06:14:43.687Z,5192.00
2018-07-21T06:15:43.675Z,5340.00
2018-07-21T06:16:43.671Z,5492.00
2018-07-21T06:17:43.651Z,5676.00
2018-07-21T06:18:43.657Z,5848.00
2018-07-21T06:19:43.627Z,6064.00
2018-07-21T06:20:43.624Z,6420.00
2018-07-21T06:21:43.614Z,6936.00
2018-07-21T06:22:43.593Z,7584.00
2018-07-21T06:23:43.639Z,13424.00
2018-07-21T06:24:43.570Z,8544.00
2018-07-21T06:25:43.560Z,8668.00
2018-07-21T06:26:43.548Z,8956.00
2018-07-21T06:27:43.545Z,16224.00
2018-07-21T06:28:43.526Z,10664.00
2018-07-21T06:29:43.513Z,10436.00
2018-07-21T06:30:43.502Z,9268.00
2018-07-21T06:31:43.491Z,8252.00
2018-07-21T06:32:43.482Z,7844.00
2018-07-21T06:33:43.468Z,7748.00
2018-07-21T06:34:43.467Z,8096.00
2018-07-21T06:35:43.456Z,8620.00
2018-07-21T06:36:43.436Z,8320.00
2018-07-21T06:37:43.423Z,9164.00
2018-07-21T06:38:43.414Z,10016.00
2018-07-21T06:39:43.407Z,14560.00
2018-07-21T06:40:43.404Z,14472.00
2018-07-21T06:41:43.387Z,25120.00
2018-07-21T06:42:43.371Z,34912.00
2018-07-21T06:43:43.361Z,16288.00
2018-07-21T06:44:43.350Z,27264.00
2018-07-21T06:45:43.339Z,17888.00
2018-07-21T06:46:43.329Z,15400.00
2018-07-21T06:47:43.320Z,13640.00
2018-07-21T06:48:43.309Z,14492.00
2018-07-21T06:49:43.300Z,16576.00
2018-07-21T06:50:43.305Z,29440.00
2018-07-21T06:51:43.277Z,40448.00
2018-07-21T06:52:43.268Z,21120.00
2018-07-21T06:53:43.259Z,17696.00
2018-07-21T06:54:43.249Z,46976.00
2018-07-21T06:55:43.239Z,43744.00
2018-07-21T06:56:43.236Z,47392.00
2018-07-21T06:57:43.235Z,39968.00
2018-07-21T06:58:43.210Z,44544.00
2018-07-21T06:59:43.203Z,31136.00
2018-07-21T07:00:43.202Z,33952.00
2018-07-21T07:01:43.187Z,29120.00
2018-07-21T07:02:43.184Z,21728.00
2018-07-21T07:03:43.173Z,17856.00
2018-07-21T07:04:43.208Z,24416.00
2018-07-21T07:05:43.156Z,21824.00
2018-07-21T07:06:43.165Z,31072.00
2018-07-21T07:07:43.140Z,11356.00
2018-07-21T07:08:43.141Z,17760.00
2018-07-21T07:09:43.126Z,12940.00
2018-07-21T07:10:43.126Z,16928.00
2018-07-21T07:11:43.119Z,19552.00
2018-07-21T07:12:43.110Z,16896.00
2018-07-21T07:13:43.104Z,12476.00
2018-07-21T07:14:43.091Z,13392.00
2018-07-21T07:15:43.083Z,19040.00
2018-07-21T07:16:43.082Z,20128.00
2018-07-21T07:17:43.069Z,14120.00
2018-07-21T07:18:43.061Z,16352.00
2018-07-21T07:19:43.053Z,18848.00
2018-07-21T07:20:43.049Z,13632.00
2018-07-21T07:21:43.040Z,11532.00
2018-07-21T07:22:43.040Z,11144.00
2018-07-21T07:23:43.025Z,13256.00
2018-07-21T07:24:43.018Z,25056.00
2018-07-21T07:25:43.029Z,25664.00
2018-07-21T07:26:43.015Z,32320.00
2018-07-21T07:27:42.995Z,32608.00
2018-07-21T07:28:42.989Z,38496.00
2018-07-21T07:29:42.996Z,33664.00
2018-07-21T07:30:42.980Z,36320.00
2018-07-21T07:31:43.077Z,25280.00
2018-07-21T07:32:42.969Z,11664.00
2018-07-21T07:33:42.955Z,9692.00
2018-07-21T07:34:43.036Z,8956.00
2018-07-21T07:35:42.942Z,8964.00
2018-07-21T07:36:42.933Z,9384.00
2018-07-21T07:37:42.926Z,9676.00
2018-07-21T07:38:42.917Z,11108.00
2018-07-21T07:39:42.914Z,12492.00
2018-07-21T07:40:42.907Z,10424.00
2018-07-21T07:41:42.904Z,11196.00
2018-07-21T07:42:42.890Z,15076.00
2018-07-21T07:43:42.877Z,14440.00
2018-07-21T07:44:42.870Z,13584.00
2018-07-21T07:45:42.869Z,13708.00
2018-07-21T07:46:42.854Z,15468.00
2018-07-21T07:47:42.856Z,16736.00
2018-07-21T07:48:42.840Z,16800.00
2018-07-21T07:49:42.843Z,15216.00
2018-07-21T07:50:42.829Z,14048.00
2018-07-21T07:51:42.816Z,13840.00
2018-07-21T07:52:42.816Z,14012.00
2018-07-21T07:53:42.802Z,13996.00
2018-07-21T07:54:42.793Z,13816.00
2018-07-21T07:55:42.788Z,13844.00
2018-07-21T07:56:42.781Z,14260.00
2018-07-21T07:57:42.765Z,13432.00
2018-07-21T07:58:42.758Z,13124.00
2018-07-21T07:59:42.747Z,13712.00
2018-07-21T08:00:42.839Z,13540.00
2018-07-21T08:01:42.731Z,14144.00
2018-07-21T08:02:42.722Z,14288.00
2018-07-21T08:03:42.713Z,14780.00
2018-07-21T08:04:42.706Z,17280.00
2018-07-21T08:05:42.697Z,18880.00
2018-07-21T08:06:42.688Z,22336.00
2018-07-21T08:07:42.684Z,30848.00
2018-07-21T08:08:42.680Z,32512.00
2018-07-21T08:09:42.674Z,38304.00
2018-07-21T08:10:42.652Z,33888.00
2018-07-21T08:11:42.642Z,29472.00
2018-07-21T08:12:42.633Z,34432.00
2018-07-21T08:13:42.638Z,20416.00
2018-07-21T08:14:42.618Z,19040.00
2018-07-21T08:15:42.611Z,18048.00
2018-07-21T08:16:42.601Z,20032.00
2018-07-21T08:17:42.598Z,20224.00
2018-07-21T08:18:42.585Z,18176.00
2018-07-21T08:19:42.575Z,17472.00
2018-07-21T08:20:42.589Z,16416.00
2018-07-21T08:21:42.566Z,15928.00
2018-07-21T08:22:42.550Z,15920.00
2018-07-21T08:23:42.541Z,16000.00
2018-07-21T08:24:42.534Z,16024.00
2018-07-21T08:25:42.526Z,16544.00
2018-07-21T08:26:42.518Z,17248.00
2018-07-21T08:27:42.508Z,17984.00
2018-07-21T08:28:42.509Z,18656.00
2018-07-21T08:29:42.499Z,19424.00
2018-07-21T08:30:42.484Z,19168.00
2018-07-21T08:31:42.488Z,18848.00
2018-07-21T08:32:42.469Z,18304.00
2018-07-21T08:33:42.467Z,17600.00
2018-07-21T08:34:42.475Z,17120.00
2018-07-21T08:35:42.448Z,16992.00
2018-07-21T08:36:42.438Z,16832.00
2018-07-21T08:37:42.428Z,16704.00
2018-07-21T08:38:42.420Z,16228.00
2018-07-21T08:39:42.425Z,15724.00
2018-07-21T08:40:42.404Z,15468.00
2018-07-21T08:41:42.397Z,15372.00
2018-07-21T08:42:42.388Z,15384.00
2018-07-21T08:43:42.396Z,15484.00
2018-07-21T08:44:42.378Z,15656.00
2018-07-21T08:45:42.376Z,16008.00
2018-07-21T08:46:42.356Z,16800.00
2018-07-21T08:47:42.351Z,17792.00
2018-07-21T08:48:42.349Z,20352.00
2018-07-21T08:49:42.401Z,23808.00
2018-07-21T08:50:42.332Z,21792.00
2018-07-21T08:51:42.316Z,21056.00
2018-07-21T08:52:42.309Z,19392.00
2018-07-21T08:53:42.301Z,18304.00
2018-07-21T08:54:42.299Z,17568.00
2018-07-21T08:55:42.309Z,17216.00
2018-07-21T08:56:42.277Z,17248.00
2018-07-21T08:57:42.269Z,17728.00
2018-07-21T08:58:42.267Z,18112.00
2018-07-21T08:59:42.254Z,18144.00
2018-07-21T09:00:42.245Z,17984.00
2018-07-21T09:01:42.285Z,17632.00
2018-07-21T09:02:42.238Z,17664.00
2018-07-21T09:03:42.224Z,17888.00
2018-07-21T09:04:42.220Z,18272.00
2018-07-21T09:05:42.255Z,18496.00
2018-07-21T09:06:42.202Z,18880.00
2018-07-21T09:07:42.194Z,19200.00
2018-07-21T09:08:42.190Z,18400.00
2018-07-21T09:09:42.178Z,18528.00
2018-07-21T09:10:42.172Z,18464.00
2018-07-21T09:11:42.163Z,17792.00
2018-07-21T09:12:42.157Z,17408.00
2018-07-21T09:13:42.152Z,17312.00
2018-07-21T09:14:42.141Z,17216.00
2018-07-21T09:15:42.138Z,17344.00
2018-07-21T09:16:42.133Z,17408.00
2018-07-21T09:17:42.118Z,17600.00
2018-07-21T09:18:42.113Z,17696.00
2018-07-21T09:19:42.128Z,19936.00
2018-07-21T09:20:42.112Z,19552.00
2018-07-21T09:21:42.099Z,20320.00
2018-07-21T09:22:42.087Z,21248.00
2018-07-21T09:23:42.077Z,20448.00
2018-07-21T09:24:42.070Z,20672.00
2018-07-21T09:25:42.073Z,21568.00
2018-07-21T09:26:42.059Z,24992.00
2018-07-21T09:27:42.054Z,25536.00
2018-07-21T09:28:42.041Z,30080.00
2018-07-21T09:29:42.039Z,26784.00
2018-07-21T09:30:42.026Z,26080.00
2018-07-21T09:31:42.027Z,24960.00
2018-07-21T09:32:42.019Z,25600.00
2018-07-21T09:33:42.005Z,24256.00
2018-07-21T09:34:42.000Z,23136.00
2018-07-21T09:35:41.999Z,21632.00
2018-07-21T09:36:41.993Z,27360.00
2018-07-21T09:37:41.985Z,25536.00
2018-07-21T09:38:41.983Z,26368.00
2018-07-21T09:39:41.965Z,24384.00
2018-07-21T09:40:41.968Z,25440.00
2018-07-21T09:41:41.957Z,24032.00
2018-07-21T09:42:41.953Z,22816.00
2018-07-21T09:43:41.949Z,19776.00
2018-07-21T09:44:41.933Z,20480.00
2018-07-21T09:45:41.937Z,20224.00
2018-07-21T09:46:41.923Z,19232.00
2018-07-21T09:47:41.923Z,19136.00
2018-07-21T09:48:41.921Z,19520.00
2018-07-21T09:49:41.903Z,20512.00
2018-07-21T09:50:41.894Z,24000.00
2018-07-21T09:51:41.890Z,26720.00
2018-07-21T09:52:41.893Z,37600.00
2018-07-21T09:53:41.879Z,36448.00
2018-07-21T09:54:41.880Z,25056.00
2018-07-21T09:55:41.950Z,23744.00
2018-07-21T09:56:41.878Z,24000.00
2018-07-21T09:57:41.862Z,26112.00
2018-07-21T09:58:41.862Z,24448.00
2018-07-21T09:59:41.849Z,25920.00
2018-07-21T10:00:41.848Z,26144.00
2018-07-21T10:01:41.895Z,24096.00
2018-07-21T10:02:41.826Z,25536.00
2018-07-21T10:03:41.836Z,28640.00
2018-07-21T10:04:41.961Z,36416.00
2018-07-21T10:05:41.817Z,59232.00
2018-07-21T10:06:41.809Z,62624.00
2018-07-21T10:07:41.798Z,44640.00
2018-07-21T10:08:41.790Z,39072.00
2018-07-21T10:09:41.789Z,57952.00
2018-07-21T10:10:41.782Z,59680.00
2018-07-21T10:11:41.782Z,48800.00
2018-07-21T10:12:41.770Z,39584.00
2018-07-21T10:13:41.766Z,49024.00
2018-07-21T10:14:41.762Z,58848.00
2018-07-21T10:15:41.763Z,55392.00
2018-07-21T10:16:41.757Z,58720.00
2018-07-21T10:17:41.755Z,66656.00
2018-07-21T10:18:41.746Z,59136.00
2018-07-21T10:19:41.740Z,57248.00
2018-07-21T10:20:41.775Z,60704.00
2018-07-21T10:21:41.735Z,60000.00
2018-07-21T10:22:41.748Z,72576.00
2018-07-21T10:23:41.730Z,79168.00
2018-07-21T10:24:41.725Z,79712.00
2018-07-21T10:25:41.723Z,75552.00
2018-07-21T10:26:41.721Z,42304.00
2018-07-21T10:27:41.719Z,49248.00
2018-07-21T10:28:41.719Z,46304.00
2018-07-21T10:29:41.731Z,39360.00
2018-07-21T10:30:41.731Z,55296.00
2018-07-21T10:31:41.715Z,54752.00
2018-07-21T10:32:41.715Z,59264.00
2018-07-21T10:33:41.866Z,60576.00
2018-07-21T10:34:41.720Z,68576.00
2018-07-21T10:35:41.712Z,73504.00
2018-07-21T10:36:41.718Z,65600.00
2018-07-21T10:37:41.712Z,58176.00
2018-07-21T10:38:41.729Z,54528.00
2018-07-21T10:39:41.718Z,51648.00
2018-07-21T10:40:41.718Z,50240.00
2018-07-21T10:41:41.715Z,49216.00
2018-07-21T10:42:41.711Z,55904.00
2018-07-21T10:43:41.713Z,57312.00
2018-07-21T10:44:41.717Z,65088.00
2018-07-21T10:45:41.714Z,64928.00
2018-07-21T10:46:41.716Z,62400.00
2018-07-21T10:47:41.802Z,63264.00
2018-07-21T10:48:41.718Z,52128.00
2018-07-21T10:49:41.717Z,49504.00
2018-07-21T10:50:41.754Z,32160.00
2018-07-21T10:51:41.725Z,24000.00
2018-07-21T10:52:41.719Z,23968.00
2018-07-21T10:53:41.719Z,27808.00
2018-07-21T10:54:41.721Z,35968.00
2018-07-21T10:55:41.722Z,48192.00
2018-07-21T10:56:41.725Z,28704.00
2018-07-21T10:57:41.722Z,30176.00
2018-07-21T10:58:41.723Z,29280.00
2018-07-21T10:59:41.731Z,28896.00
2018-07-21T11:00:41.724Z,40480.00
2018-07-21T11:01:41.724Z,43232.00
2018-07-21T11:02:41.725Z,31776.00
2018-07-21T11:03:41.722Z,29792.00
2018-07-21T11:04:41.722Z,33920.00
2018-07-21T11:05:41.731Z,43968.00
2018-07-21T11:06:41.724Z,51104.00
2018-07-21T11:07:41.725Z,41472.00
2018-07-21T11:08:41.720Z,63584.00
2018-07-21T11:09:41.724Z,32640.00
2018-07-21T11:10:41.824Z,33408.00
2018-07-21T11:11:41.731Z,29664.00
2018-07-21T11:12:41.718Z,25120.00
2018-07-21T11:13:41.718Z,44000.00
2018-07-21T11:14:41.717Z,50880.00
2018-07-21T11:15:41.719Z,51456.00
2018-07-21T11:16:41.717Z,55200.00
2018-07-21T11:17:41.720Z,50272.00
2018-07-21T11:18:41.720Z,59168.00
2018-07-21T11:19:41.716Z,56416.00
2018-07-21T11:20:41.722Z,40640.00
2018-07-21T11:21:41.714Z,62176.00
2018-07-21T11:22:41.732Z,64256.00
2018-07-21T11:23:41.712Z,75680.00
2018-07-21T11:24:41.715Z,73600.00
2018-07-21T11:25:41.714Z,62080.00
2018-07-21T11:26:41.712Z,73984.00
2018-07-21T11:27:41.720Z,82336.00
2018-07-21T11:28:41.863Z,66912.00
2018-07-21T11:29:41.714Z,73312.00
2018-07-21T11:30:41.716Z,82912.00
2018-07-21T11:31:41.789Z,73632.00
2018-07-21T11:32:41.718Z,65024.00
2018-07-21T11:33:41.717Z,68544.00
2018-07-21T11:34:41.722Z,70400.00
2018-07-21T11:35:41.984Z,67744.00
2018-07-21T11:36:41.723Z,68032.00
2018-07-21T11:37:41.734Z,74624.00
2018-07-21T11:38:41.727Z,77664.00
2018-07-21T11:39:41.726Z,77472.00
2018-07-21T11:40:41.755Z,79072.00
2018-07-21T11:41:41.760Z,81184.00
2018-07-21T11:42:41.745Z,74208.00
2018-07-21T11:43:41.735Z,80320.00
2018-07-21T11:44:41.741Z,76288.00
2018-07-21T11:45:41.749Z,74304.00
2018-07-21T11:46:41.758Z,74080.00
2018-07-21T11:47:41.764Z,77920.00
2018-07-21T11:48:41.756Z,78304.00
2018-07-21T11:49:41.758Z,76512.00
2018-07-21T11:50:41.756Z,77184.00
2018-07-21T11:51:41.756Z,80096.00
2018-07-21T11:52:41.758Z,61472.00
2018-07-21T11:53:41.772Z,67968.00
2018-07-21T11:54:41.798Z,34368.00
2018-07-21T11:55:41.767Z,15748.00
2018-07-21T11:56:41.776Z,15020.00
2018-07-21T11:57:41.770Z,14792.00
2018-07-21T11:58:41.779Z,14672.00
2018-07-21T11:59:41.772Z,14372.00
2018-07-21T12:00:41.771Z,14240.00
2018-07-21T12:01:41.771Z,14192.00
2018-07-21T12:02:41.774Z,14152.00
2018-07-21T12:03:41.775Z,14148.00
2018-07-21T12:04:41.924Z,14076.00
2018-07-21T12:05:41.780Z,13992.00
2018-07-21T12:06:41.773Z,13892.00
2018-07-21T12:07:41.776Z,13780.00
2018-07-21T12:08:41.775Z,13700.00
2018-07-21T12:09:41.761Z,13684.00
2018-07-21T12:10:41.761Z,13680.00
2018-07-21T12:11:41.769Z,13680.00
2018-07-21T12:12:41.762Z,13696.00
2018-07-21T12:13:41.826Z,13784.00
2018-07-21T12:14:41.760Z,13760.00
2018-07-21T12:15:41.753Z,13648.00
2018-07-21T12:16:41.745Z,13516.00
2018-07-21T12:17:41.741Z,13408.00
2018-07-21T12:18:41.737Z,13352.00
2018-07-21T12:19:41.732Z,13348.00
2018-07-21T12:20:41.729Z,13408.00